sensor_id;sensor_type;location;lat;lon;timestamp;P1;durP1;ratioP1;P2;durP2;ratioP2
66118;SDS011;52912;48.564;9.302;2023-03-23T00:01:14;5.15;;;2.10;;
66118;SDS011;52912;48.564;9.302;2023-03-23T00:03:41;6.63;;;1.65;;
66118;SDS011;52912;48.564;9.302;2023-03-23T00:06:07;3.63;;;1.83;;
66118;SDS011;52912;48.564;9.302;2023-03-23T00:08:33;4.95;;;2.00;;
66118;SDS011;52912;48.564;9.302;2023-03-23T00:11:02;3.35;;;1.80;;
66118;SDS011;52912;48.564;9.302;2023-03-23T00:13:28;4.32;;;1.85;;
66118;SDS011;52912;48.564;9.302;2023-03-23T00:15:53;2.45;;;1.75;;
66118;SDS011;52912;48.564;9.302;2023-03-23T00:18:19;4.75;;;1.70;;
66118;SDS011;52912;48.564;9.302;2023-03-23T00:20:45;11.07;;;1.80;;
66118;SDS011;52912;48.564;9.302;2023-03-23T00:23:10;3.10;;;1.75;;
66118;SDS011;52912;48.564;9.302;2023-03-23T00:25:36;4.68;;;2.20;;
66118;SDS011;52912;48.564;9.302;2023-03-23T00:28:03;2.40;;;1.73;;
66118;SDS011;52912;48.564;9.302;2023-03-23T00:30:28;3.58;;;1.90;;
66118;SDS011;52912;48.564;9.302;2023-03-23T00:32:54;2.50;;;1.70;;
66118;SDS011;52912;48.564;9.302;2023-03-23T00:35:19;2.72;;;1.92;;
66118;SDS011;52912;48.564;9.302;2023-03-23T00:37:44;3.40;;;1.92;;
66118;SDS011;52912;48.564;9.302;2023-03-23T00:40:10;3.17;;;1.90;;
66118;SDS011;52912;48.564;9.302;2023-03-23T00:42:36;3.63;;;1.98;;
66118;SDS011;52912;48.564;9.302;2023-03-23T00:45:03;3.65;;;1.90;;
66118;SDS011;52912;48.564;9.302;2023-03-23T00:47:29;4.20;;;2.10;;
66118;SDS011;52912;48.564;9.302;2023-03-23T00:49:54;3.25;;;1.70;;
66118;SDS011;52912;48.564;9.302;2023-03-23T00:52:20;3.67;;;1.92;;
66118;SDS011;52912;48.564;9.302;2023-03-23T00:54:45;1.92;;;1.50;;
66118;SDS011;52912;48.564;9.302;2023-03-23T00:57:11;2.22;;;1.67;;
66118;SDS011;52912;48.564;9.302;2023-03-23T00:59:36;2.47;;;1.70;;
66118;SDS011;52912;48.564;9.302;2023-03-23T01:02:03;5.70;;;2.00;;
66118;SDS011;52912;48.564;9.302;2023-03-23T01:04:29;4.68;;;1.73;;
66118;SDS011;52912;48.564;9.302;2023-03-23T01:06:54;3.95;;;1.33;;
66118;SDS011;52912;48.564;9.302;2023-03-23T01:09:19;2.53;;;1.67;;
66118;SDS011;52912;48.564;9.302;2023-03-23T01:11:45;3.47;;;1.48;;
66118;SDS011;52912;48.564;9.302;2023-03-23T01:14:12;3.13;;;1.50;;
66118;SDS011;52912;48.564;9.302;2023-03-23T01:16:38;2.65;;;1.50;;
66118;SDS011;52912;48.564;9.302;2023-03-23T01:19:05;3.25;;;1.75;;
66118;SDS011;52912;48.564;9.302;2023-03-23T01:21:31;2.67;;;1.83;;
66118;SDS011;52912;48.564;9.302;2023-03-23T01:23:56;6.95;;;1.80;;
66118;SDS011;52912;48.564;9.302;2023-03-23T01:26:23;2.33;;;1.52;;
66118;SDS011;52912;48.564;9.302;2023-03-23T01:28:50;2.47;;;1.70;;
66118;SDS011;52912;48.564;9.302;2023-03-23T01:31:17;3.33;;;1.90;;
66118;SDS011;52912;48.564;9.302;2023-03-23T01:33:44;5.40;;;2.40;;
66118;SDS011;52912;48.564;9.302;2023-03-23T01:36:12;4.75;;;2.30;;
66118;SDS011;52912;48.564;9.302;2023-03-23T01:38:40;3.42;;;2.10;;
66118;SDS011;52912;48.564;9.302;2023-03-23T01:41:06;3.72;;;2.40;;
66118;SDS011;52912;48.564;9.302;2023-03-23T01:43:32;3.50;;;2.10;;
66118;SDS011;52912;48.564;9.302;2023-03-23T01:45:57;7.78;;;2.42;;
66118;SDS011;52912;48.564;9.302;2023-03-23T01:48:23;3.65;;;2.10;;
66118;SDS011;52912;48.564;9.302;2023-03-23T01:50:53;6.63;;;2.67;;
66118;SDS011;52912;48.564;9.302;2023-03-23T01:53:22;4.68;;;2.50;;
66118;SDS011;52912;48.564;9.302;2023-03-23T01:55:51;5.10;;;2.20;;
66118;SDS011;52912;48.564;9.302;2023-03-23T01:58:19;4.55;;;2.20;;
66118;SDS011;52912;48.564;9.302;2023-03-23T02:00:48;3.53;;;2.00;;
66118;SDS011;52912;48.564;9.302;2023-03-23T02:03:14;5.43;;;2.00;;
66118;SDS011;52912;48.564;9.302;2023-03-23T02:05:40;3.63;;;1.90;;
66118;SDS011;52912;48.564;9.302;2023-03-23T02:08:07;4.88;;;2.00;;
66118;SDS011;52912;48.564;9.302;2023-03-23T02:10:36;2.97;;;1.60;;
66118;SDS011;52912;48.564;9.302;2023-03-23T02:13:03;3.25;;;1.80;;
66118;SDS011;52912;48.564;9.302;2023-03-23T02:15:34;3.05;;;1.40;;
66118;SDS011;52912;48.564;9.302;2023-03-23T02:18:08;2.25;;;1.60;;
66118;SDS011;52912;48.564;9.302;2023-03-23T02:20:48;3.03;;;1.70;;
66118;SDS011;52912;48.564;9.302;2023-03-23T02:26:37;2.40;;;1.73;;
66118;SDS011;52912;48.564;9.302;2023-03-23T02:29:22;1.65;;;1.40;;
66118;SDS011;52912;48.564;9.302;2023-03-23T02:34:55;2.67;;;1.52;;
66118;SDS011;52912;48.564;9.302;2023-03-23T02:37:24;3.55;;;1.60;;
66118;SDS011;52912;48.564;9.302;2023-03-23T02:39:55;3.17;;;1.40;;
66118;SDS011;52912;48.564;9.302;2023-03-23T02:42:26;1.83;;;1.40;;
66118;SDS011;52912;48.564;9.302;2023-03-23T02:44:53;4.57;;;1.40;;
66118;SDS011;52912;48.564;9.302;2023-03-23T02:47:22;3.97;;;1.60;;
66118;SDS011;52912;48.564;9.302;2023-03-23T02:52:20;1.77;;;1.40;;
66118;SDS011;52912;48.564;9.302;2023-03-23T02:54:48;2.25;;;1.35;;
66118;SDS011;52912;48.564;9.302;2023-03-23T02:57:15;1.45;;;1.10;;
66118;SDS011;52912;48.564;9.302;2023-03-23T02:59:41;1.92;;;1.40;;
66118;SDS011;52912;48.564;9.302;2023-03-23T03:02:07;1.67;;;1.27;;
66118;SDS011;52912;48.564;9.302;2023-03-23T03:04:36;2.88;;;1.50;;
66118;SDS011;52912;48.564;9.302;2023-03-23T03:07:11;1.60;;;1.20;;
66118;SDS011;52912;48.564;9.302;2023-03-23T03:09:48;1.92;;;1.35;;
66118;SDS011;52912;48.564;9.302;2023-03-23T03:12:20;4.45;;;1.33;;
66118;SDS011;52912;48.564;9.302;2023-03-23T03:14:51;1.48;;;1.27;;
66118;SDS011;52912;48.564;9.302;2023-03-23T03:17:23;1.05;;;1.00;;
66118;SDS011;52912;48.564;9.302;2023-03-23T03:19:50;1.92;;;1.40;;
66118;SDS011;52912;48.564;9.302;2023-03-23T03:22:21;3.05;;;1.40;;
66118;SDS011;52912;48.564;9.302;2023-03-23T03:24:48;2.35;;;1.35;;
66118;SDS011;52912;48.564;9.302;2023-03-23T03:27:16;1.55;;;1.25;;
66118;SDS011;52912;48.564;9.302;2023-03-23T03:29:45;1.20;;;1.10;;
66118;SDS011;52912;48.564;9.302;2023-03-23T03:32:14;2.45;;;1.30;;
66118;SDS011;52912;48.564;9.302;2023-03-23T03:34:43;3.90;;;1.33;;
66118;SDS011;52912;48.564;9.302;2023-03-23T03:37:08;1.67;;;1.40;;
66118;SDS011;52912;48.564;9.302;2023-03-23T03:39:37;3.53;;;1.38;;
66118;SDS011;52912;48.564;9.302;2023-03-23T03:42:03;3.58;;;1.75;;
66118;SDS011;52912;48.564;9.302;2023-03-23T03:44:29;1.88;;;1.27;;
66118;SDS011;52912;48.564;9.302;2023-03-23T03:46:54;2.13;;;1.30;;
66118;SDS011;52912;48.564;9.302;2023-03-23T03:49:19;2.88;;;1.30;;
66118;SDS011;52912;48.564;9.302;2023-03-23T03:51:45;2.42;;;1.40;;
66118;SDS011;52912;48.564;9.302;2023-03-23T03:54:10;1.25;;;1.15;;
66118;SDS011;52912;48.564;9.302;2023-03-23T03:56:37;1.30;;;1.20;;
66118;SDS011;52912;48.564;9.302;2023-03-23T03:59:03;1.15;;;1.10;;
66118;SDS011;52912;48.564;9.302;2023-03-23T04:01:28;2.03;;;1.33;;
66118;SDS011;52912;48.564;9.302;2023-03-23T04:03:54;1.55;;;1.10;;
66118;SDS011;52912;48.564;9.302;2023-03-23T04:06:20;1.95;;;1.20;;
66118;SDS011;52912;48.564;9.302;2023-03-23T04:08:46;3.58;;;1.40;;
66118;SDS011;52912;48.564;9.302;2023-03-23T04:11:12;3.05;;;1.35;;
66118;SDS011;52912;48.564;9.302;2023-03-23T04:13:39;1.83;;;1.17;;
66118;SDS011;52912;48.564;9.302;2023-03-23T04:16:06;2.10;;;1.30;;
66118;SDS011;52912;48.564;9.302;2023-03-23T04:18:32;2.00;;;1.30;;
66118;SDS011;52912;48.564;9.302;2023-03-23T04:20:58;1.77;;;1.30;;
66118;SDS011;52912;48.564;9.302;2023-03-23T04:23:25;2.65;;;1.45;;
66118;SDS011;52912;48.564;9.302;2023-03-23T04:25:52;2.30;;;1.20;;
66118;SDS011;52912;48.564;9.302;2023-03-23T04:28:18;3.90;;;1.25;;
66118;SDS011;52912;48.564;9.302;2023-03-23T04:30:46;4.38;;;1.20;;
66118;SDS011;52912;48.564;9.302;2023-03-23T04:33:11;2.40;;;1.27;;
66118;SDS011;52912;48.564;9.302;2023-03-23T04:35:37;2.83;;;1.20;;
66118;SDS011;52912;48.564;9.302;2023-03-23T04:38:02;2.00;;;1.30;;
66118;SDS011;52912;48.564;9.302;2023-03-23T04:40:28;2.95;;;1.20;;
66118;SDS011;52912;48.564;9.302;2023-03-23T04:42:53;4.40;;;1.33;;
66118;SDS011;52912;48.564;9.302;2023-03-23T04:45:19;4.40;;;1.35;;
66118;SDS011;52912;48.564;9.302;2023-03-23T04:47:47;3.05;;;1.48;;
66118;SDS011;52912;48.564;9.302;2023-03-23T04:50:14;3.45;;;1.33;;
66118;SDS011;52912;48.564;9.302;2023-03-23T04:52:40;1.88;;;1.30;;
66118;SDS011;52912;48.564;9.302;2023-03-23T04:55:06;1.88;;;1.40;;
66118;SDS011;52912;48.564;9.302;2023-03-23T04:57:33;1.90;;;1.30;;
66118;SDS011;52912;48.564;9.302;2023-03-23T04:59:59;3.08;;;1.40;;
66118;SDS011;52912;48.564;9.302;2023-03-23T05:02:24;1.88;;;1.20;;
66118;SDS011;52912;48.564;9.302;2023-03-23T05:04:51;2.65;;;1.30;;
66118;SDS011;52912;48.564;9.302;2023-03-23T05:07:17;3.17;;;1.50;;
66118;SDS011;52912;48.564;9.302;2023-03-23T05:09:46;2.33;;;1.40;;
66118;SDS011;52912;48.564;9.302;2023-03-23T05:12:12;4.30;;;1.40;;
66118;SDS011;52912;48.564;9.302;2023-03-23T05:14:39;2.63;;;1.45;;
66118;SDS011;52912;48.564;9.302;2023-03-23T05:17:05;3.33;;;1.50;;
66118;SDS011;52912;48.564;9.302;2023-03-23T05:19:31;2.38;;;1.45;;
66118;SDS011;52912;48.564;9.302;2023-03-23T05:21:58;2.13;;;1.55;;
66118;SDS011;52912;48.564;9.302;2023-03-23T05:24:23;1.85;;;1.27;;
66118;SDS011;52912;48.564;9.302;2023-03-23T05:26:49;3.55;;;1.30;;
66118;SDS011;52912;48.564;9.302;2023-03-23T05:29:14;1.98;;;1.30;;
66118;SDS011;52912;48.564;9.302;2023-03-23T05:31:40;3.30;;;1.30;;
66118;SDS011;52912;48.564;9.302;2023-03-23T05:34:05;2.25;;;1.45;;
66118;SDS011;52912;48.564;9.302;2023-03-23T05:36:30;1.60;;;1.27;;
66118;SDS011;52912;48.564;9.302;2023-03-23T05:38:57;2.13;;;1.40;;
66118;SDS011;52912;48.564;9.302;2023-03-23T05:41:23;1.50;;;1.30;;
66118;SDS011;52912;48.564;9.302;2023-03-23T05:43:48;2.70;;;1.42;;
66118;SDS011;52912;48.564;9.302;2023-03-23T05:46:14;3.00;;;1.60;;
66118;SDS011;52912;48.564;9.302;2023-03-23T05:48:39;3.67;;;1.70;;
66118;SDS011;52912;48.564;9.302;2023-03-23T05:51:04;3.33;;;1.45;;
66118;SDS011;52912;48.564;9.302;2023-03-23T05:53:30;1.95;;;1.15;;
66118;SDS011;52912;48.564;9.302;2023-03-23T05:55:59;2.80;;;1.67;;
66118;SDS011;52912;48.564;9.302;2023-03-23T05:58:25;2.83;;;1.40;;
66118;SDS011;52912;48.564;9.302;2023-03-23T06:00:50;2.45;;;1.50;;
66118;SDS011;52912;48.564;9.302;2023-03-23T06:03:16;3.63;;;1.67;;
66118;SDS011;52912;48.564;9.302;2023-03-23T06:05:41;2.47;;;1.30;;
66118;SDS011;52912;48.564;9.302;2023-03-23T06:08:08;2.65;;;1.55;;
66118;SDS011;52912;48.564;9.302;2023-03-23T06:10:33;2.95;;;1.58;;
66118;SDS011;52912;48.564;9.302;2023-03-23T06:13:00;4.40;;;1.60;;
66118;SDS011;52912;48.564;9.302;2023-03-23T06:15:26;1.83;;;1.35;;
66118;SDS011;52912;48.564;9.302;2023-03-23T06:17:51;3.25;;;1.55;;
66118;SDS011;52912;48.564;9.302;2023-03-23T06:20:17;3.38;;;1.58;;
66118;SDS011;52912;48.564;9.302;2023-03-23T06:22:42;3.38;;;1.63;;
66118;SDS011;52912;48.564;9.302;2023-03-23T06:25:08;3.30;;;1.60;;
66118;SDS011;52912;48.564;9.302;2023-03-23T06:27:35;4.00;;;1.85;;
66118;SDS011;52912;48.564;9.302;2023-03-23T06:30:02;4.07;;;1.80;;
66118;SDS011;52912;48.564;9.302;2023-03-23T06:32:28;4.30;;;1.80;;
66118;SDS011;52912;48.564;9.302;2023-03-23T06:34:55;2.95;;;1.70;;
66118;SDS011;52912;48.564;9.302;2023-03-23T06:37:20;3.95;;;1.73;;
66118;SDS011;52912;48.564;9.302;2023-03-23T06:39:46;7.55;;;2.10;;
66118;SDS011;52912;48.564;9.302;2023-03-23T06:42:11;3.30;;;1.90;;
66118;SDS011;52912;48.564;9.302;2023-03-23T06:44:37;3.13;;;1.52;;
66118;SDS011;52912;48.564;9.302;2023-03-23T06:47:04;4.95;;;1.70;;
66118;SDS011;52912;48.564;9.302;2023-03-23T06:49:30;2.63;;;1.55;;
66118;SDS011;52912;48.564;9.302;2023-03-23T06:51:55;6.97;;;2.10;;
66118;SDS011;52912;48.564;9.302;2023-03-23T06:54:21;2.03;;;1.70;;
66118;SDS011;52912;48.564;9.302;2023-03-23T06:56:46;5.45;;;1.88;;
66118;SDS011;52912;48.564;9.302;2023-03-23T06:59:12;4.95;;;1.75;;
66118;SDS011;52912;48.564;9.302;2023-03-23T07:01:37;4.32;;;1.90;;
66118;SDS011;52912;48.564;9.302;2023-03-23T07:04:06;4.78;;;2.13;;
66118;SDS011;52912;48.564;9.302;2023-03-23T07:06:31;5.45;;;1.80;;
66118;SDS011;52912;48.564;9.302;2023-03-23T07:08:57;4.95;;;1.92;;
66118;SDS011;52912;48.564;9.302;2023-03-23T07:11:22;6.28;;;1.98;;
66118;SDS011;52912;48.564;9.302;2023-03-23T07:13:48;4.20;;;2.10;;
66118;SDS011;52912;48.564;9.302;2023-03-23T07:16:14;5.50;;;1.92;;
66118;SDS011;52912;48.564;9.302;2023-03-23T07:18:39;4.55;;;2.00;;
66118;SDS011;52912;48.564;9.302;2023-03-23T07:21:07;5.88;;;2.08;;
66118;SDS011;52912;48.564;9.302;2023-03-23T07:23:32;7.40;;;2.35;;
66118;SDS011;52912;48.564;9.302;2023-03-23T07:25:58;5.97;;;2.45;;
66118;SDS011;52912;48.564;9.302;2023-03-23T07:28:23;5.38;;;2.15;;
66118;SDS011;52912;48.564;9.302;2023-03-23T07:30:49;4.78;;;2.13;;
66118;SDS011;52912;48.564;9.302;2023-03-23T07:33:15;6.90;;;2.38;;
66118;SDS011;52912;48.564;9.302;2023-03-23T07:35:41;6.93;;;1.92;;
66118;SDS011;52912;48.564;9.302;2023-03-23T07:38:07;14.55;;;2.38;;
66118;SDS011;52912;48.564;9.302;2023-03-23T07:40:33;4.57;;;2.00;;
66118;SDS011;52912;48.564;9.302;2023-03-23T07:42:59;2.50;;;1.60;;
66118;SDS011;52912;48.564;9.302;2023-03-23T07:45:25;4.40;;;1.80;;
66118;SDS011;52912;48.564;9.302;2023-03-23T07:47:51;5.30;;;1.77;;
66118;SDS011;52912;48.564;9.302;2023-03-23T07:50:17;6.68;;;1.73;;
66118;SDS011;52912;48.564;9.302;2023-03-23T07:52:42;4.97;;;1.70;;
66118;SDS011;52912;48.564;9.302;2023-03-23T07:55:10;3.85;;;1.90;;
66118;SDS011;52912;48.564;9.302;2023-03-23T08:00:02;3.70;;;1.80;;
66118;SDS011;52912;48.564;9.302;2023-03-23T08:02:29;2.85;;;1.88;;
66118;SDS011;52912;48.564;9.302;2023-03-23T08:04:54;2.50;;;1.63;;
66118;SDS011;52912;48.564;9.302;2023-03-23T08:07:19;3.42;;;1.60;;
66118;SDS011;52912;48.564;9.302;2023-03-23T08:09:45;3.95;;;1.80;;
66118;SDS011;52912;48.564;9.302;2023-03-23T08:12:12;3.08;;;1.58;;
66118;SDS011;52912;48.564;9.302;2023-03-23T08:14:38;2.50;;;1.70;;
66118;SDS011;52912;48.564;9.302;2023-03-23T08:17:04;3.40;;;1.75;;
66118;SDS011;52912;48.564;9.302;2023-03-23T08:19:29;3.22;;;1.80;;
66118;SDS011;52912;48.564;9.302;2023-03-23T08:21:55;2.20;;;1.70;;
66118;SDS011;52912;48.564;9.302;2023-03-23T08:24:20;4.63;;;1.70;;
66118;SDS011;52912;48.564;9.302;2023-03-23T08:26:46;3.97;;;1.70;;
66118;SDS011;52912;48.564;9.302;2023-03-23T08:29:12;4.70;;;1.70;;
66118;SDS011;52912;48.564;9.302;2023-03-23T08:31:38;3.28;;;1.70;;
66118;SDS011;52912;48.564;9.302;2023-03-23T08:34:04;4.30;;;1.88;;
66118;SDS011;52912;48.564;9.302;2023-03-23T08:36:30;3.33;;;1.48;;
66118;SDS011;52912;48.564;9.302;2023-03-23T08:38:56;3.97;;;1.60;;
66118;SDS011;52912;48.564;9.302;2023-03-23T08:41:21;8.07;;;1.83;;
66118;SDS011;52912;48.564;9.302;2023-03-23T08:43:46;6.22;;;2.03;;
66118;SDS011;52912;48.564;9.302;2023-03-23T08:46:13;6.88;;;1.77;;
66118;SDS011;52912;48.564;9.302;2023-03-23T08:48:39;3.72;;;1.60;;
66118;SDS011;52912;48.564;9.302;2023-03-23T08:51:05;1.60;;;1.40;;
66118;SDS011;52912;48.564;9.302;2023-03-23T08:53:31;4.32;;;1.50;;
66118;SDS011;52912;48.564;9.302;2023-03-23T08:56:02;4.00;;;1.77;;
66118;SDS011;52912;48.564;9.302;2023-03-23T08:58:28;4.85;;;1.80;;
66118;SDS011;52912;48.564;9.302;2023-03-23T09:00:54;4.97;;;1.77;;
66118;SDS011;52912;48.564;9.302;2023-03-23T09:03:21;3.20;;;1.73;;
66118;SDS011;52912;48.564;9.302;2023-03-23T09:05:46;5.10;;;1.92;;
66118;SDS011;52912;48.564;9.302;2023-03-23T09:08:12;7.68;;;1.70;;
66118;SDS011;52912;48.564;9.302;2023-03-23T09:10:38;2.53;;;1.65;;
66118;SDS011;52912;48.564;9.302;2023-03-23T09:13:03;2.45;;;1.80;;
66118;SDS011;52912;48.564;9.302;2023-03-23T09:15:29;3.42;;;1.83;;
66118;SDS011;52912;48.564;9.302;2023-03-23T09:17:54;5.88;;;1.75;;
66118;SDS011;52912;48.564;9.302;2023-03-23T09:20:22;6.32;;;1.50;;
66118;SDS011;52912;48.564;9.302;2023-03-23T09:22:50;3.22;;;1.48;;
66118;SDS011;52912;48.564;9.302;2023-03-23T09:25:17;3.35;;;1.48;;
66118;SDS011;52912;48.564;9.302;2023-03-23T09:27:44;2.58;;;1.48;;
66118;SDS011;52912;48.564;9.302;2023-03-23T09:30:11;2.30;;;1.35;;
66118;SDS011;52912;48.564;9.302;2023-03-23T09:32:38;3.33;;;1.50;;
66118;SDS011;52912;48.564;9.302;2023-03-23T09:35:05;10.93;;;1.95;;
66118;SDS011;52912;48.564;9.302;2023-03-23T09:37:36;2.80;;;1.65;;
66118;SDS011;52912;48.564;9.302;2023-03-23T09:40:01;4.57;;;1.70;;
66118;SDS011;52912;48.564;9.302;2023-03-23T09:42:31;4.03;;;1.58;;
66118;SDS011;52912;48.564;9.302;2023-03-23T09:45:07;1.77;;;1.35;;
66118;SDS011;52912;48.564;9.302;2023-03-23T09:47:43;6.18;;;1.50;;
66118;SDS011;52912;48.564;9.302;2023-03-23T09:50:17;5.03;;;1.42;;
66118;SDS011;52912;48.564;9.302;2023-03-23T09:52:48;1.60;;;1.40;;
66118;SDS011;52912;48.564;9.302;2023-03-23T09:55:17;4.32;;;1.50;;
66118;SDS011;52912;48.564;9.302;2023-03-23T09:57:45;1.90;;;1.30;;
66118;SDS011;52912;48.564;9.302;2023-03-23T10:00:16;6.45;;;1.50;;
66118;SDS011;52912;48.564;9.302;2023-03-23T10:02:47;5.15;;;1.70;;
66118;SDS011;52912;48.564;9.302;2023-03-23T10:05:24;2.40;;;1.58;;
66118;SDS011;52912;48.564;9.302;2023-03-23T10:07:55;2.13;;;1.50;;
66118;SDS011;52912;48.564;9.302;2023-03-23T10:10:21;4.40;;;1.50;;
66118;SDS011;52912;48.564;9.302;2023-03-23T10:12:57;2.35;;;1.50;;
66118;SDS011;52912;48.564;9.302;2023-03-23T10:15:27;2.20;;;1.45;;
66118;SDS011;52912;48.564;9.302;2023-03-23T10:17:57;3.55;;;1.60;;
66118;SDS011;52912;48.564;9.302;2023-03-23T10:20:33;2.38;;;1.40;;
66118;SDS011;52912;48.564;9.302;2023-03-23T10:23:13;3.33;;;1.42;;
66118;SDS011;52912;48.564;9.302;2023-03-23T10:25:50;3.35;;;1.50;;
66118;SDS011;52912;48.564;9.302;2023-03-23T10:28:18;2.80;;;1.48;;
66118;SDS011;52912;48.564;9.302;2023-03-23T10:30:46;3.20;;;1.43;;
66118;SDS011;52912;48.564;9.302;2023-03-23T10:33:16;3.88;;;1.50;;
66118;SDS011;52912;48.564;9.302;2023-03-23T10:35:47;4.88;;;1.60;;
66118;SDS011;52912;48.564;9.302;2023-03-23T10:38:19;2.33;;;1.50;;
66118;SDS011;52912;48.564;9.302;2023-03-23T10:40:49;1.50;;;1.35;;
66118;SDS011;52912;48.564;9.302;2023-03-23T10:43:15;2.47;;;1.50;;
66118;SDS011;52912;48.564;9.302;2023-03-23T10:45:41;2.75;;;1.50;;
66118;SDS011;52912;48.564;9.302;2023-03-23T10:48:12;9.15;;;1.90;;
66118;SDS011;52912;48.564;9.302;2023-03-23T10:50:39;3.20;;;1.83;;
66118;SDS011;52912;48.564;9.302;2023-03-23T10:53:11;4.18;;;1.50;;
66118;SDS011;52912;48.564;9.302;2023-03-23T10:55:42;3.33;;;1.50;;
66118;SDS011;52912;48.564;9.302;2023-03-23T10:58:09;2.40;;;1.48;;
66118;SDS011;52912;48.564;9.302;2023-03-23T11:00:40;2.40;;;1.60;;
66118;SDS011;52912;48.564;9.302;2023-03-23T11:06:04;3.25;;;1.58;;
66118;SDS011;52912;48.564;9.302;2023-03-23T11:08:32;3.33;;;1.80;;
66118;SDS011;52912;48.564;9.302;2023-03-23T11:11:08;1.75;;;1.30;;
66118;SDS011;52912;48.564;9.302;2023-03-23T11:13:38;2.22;;;1.40;;
66118;SDS011;52912;48.564;9.302;2023-03-23T11:16:07;3.80;;;1.67;;
66118;SDS011;52912;48.564;9.302;2023-03-23T11:18:35;2.22;;;1.50;;
66118;SDS011;52912;48.564;9.302;2023-03-23T11:21:02;4.13;;;1.52;;
66118;SDS011;52912;48.564;9.302;2023-03-23T11:23:30;2.88;;;1.40;;
66118;SDS011;52912;48.564;9.302;2023-03-23T11:26:08;1.50;;;1.40;;
66118;SDS011;52912;48.564;9.302;2023-03-23T11:28:38;2.42;;;1.52;;
66118;SDS011;52912;48.564;9.302;2023-03-23T11:31:08;3.38;;;1.50;;
66118;SDS011;52912;48.564;9.302;2023-03-23T11:33:38;3.15;;;1.50;;
66118;SDS011;52912;48.564;9.302;2023-03-23T11:36:06;3.55;;;1.55;;
66118;SDS011;52912;48.564;9.302;2023-03-23T11:38:33;2.72;;;1.50;;
66118;SDS011;52912;48.564;9.302;2023-03-23T11:40:59;4.13;;;1.45;;
66118;SDS011;52912;48.564;9.302;2023-03-23T11:43:26;2.85;;;1.50;;
66118;SDS011;52912;48.564;9.302;2023-03-23T11:45:58;5.45;;;1.50;;
66118;SDS011;52912;48.564;9.302;2023-03-23T11:48:32;4.53;;;1.65;;
66118;SDS011;52912;48.564;9.302;2023-03-23T11:51:04;4.03;;;1.42;;
66118;SDS011;52912;48.564;9.302;2023-03-23T11:53:37;6.60;;;1.48;;
66118;SDS011;52912;48.564;9.302;2023-03-23T11:56:12;2.50;;;1.40;;
66118;SDS011;52912;48.564;9.302;2023-03-23T11:58:48;2.03;;;1.40;;
66118;SDS011;52912;48.564;9.302;2023-03-23T12:01:18;2.08;;;1.50;;
66118;SDS011;52912;48.564;9.302;2023-03-23T12:03:58;1.70;;;1.27;;
66118;SDS011;52912;48.564;9.302;2023-03-23T12:06:32;1.75;;;1.35;;
66118;SDS011;52912;48.564;9.302;2023-03-23T12:09:10;2.47;;;1.38;;
66118;SDS011;52912;48.564;9.302;2023-03-23T12:11:50;2.28;;;1.52;;
66118;SDS011;52912;48.564;9.302;2023-03-23T12:14:24;2.85;;;1.73;;
66118;SDS011;52912;48.564;9.302;2023-03-23T12:16:58;4.75;;;1.65;;
66118;SDS011;52912;48.564;9.302;2023-03-23T12:19:32;3.25;;;1.58;;
66118;SDS011;52912;48.564;9.302;2023-03-23T12:22:03;5.97;;;1.60;;
66118;SDS011;52912;48.564;9.302;2023-03-23T12:24:38;7.60;;;1.73;;
66118;SDS011;52912;48.564;9.302;2023-03-23T12:27:13;2.70;;;1.58;;
66118;SDS011;52912;48.564;9.302;2023-03-23T12:29:53;3.95;;;1.60;;
66118;SDS011;52912;48.564;9.302;2023-03-23T12:32:33;2.20;;;1.60;;
66118;SDS011;52912;48.564;9.302;2023-03-23T12:35:14;3.28;;;1.70;;
66118;SDS011;52912;48.564;9.302;2023-03-23T12:37:52;2.65;;;1.60;;
66118;SDS011;52912;48.564;9.302;2023-03-23T12:40:31;5.80;;;1.43;;
66118;SDS011;52912;48.564;9.302;2023-03-23T12:43:10;1.65;;;1.33;;
66118;SDS011;52912;48.564;9.302;2023-03-23T12:45:50;2.80;;;1.38;;
66118;SDS011;52912;48.564;9.302;2023-03-23T12:48:28;2.87;;;1.73;;
66118;SDS011;52912;48.564;9.302;2023-03-23T12:51:02;3.17;;;1.73;;
66118;SDS011;52912;48.564;9.302;2023-03-23T12:56:07;3.30;;;1.40;;
66118;SDS011;52912;48.564;9.302;2023-03-23T12:58:38;3.00;;;1.70;;
66118;SDS011;52912;48.564;9.302;2023-03-23T13:01:08;2.05;;;1.55;;
66118;SDS011;52912;48.564;9.302;2023-03-23T13:03:38;4.03;;;1.67;;
66118;SDS011;52912;48.564;9.302;2023-03-23T13:06:07;2.25;;;1.50;;
66118;SDS011;52912;48.564;9.302;2023-03-23T13:08:40;3.55;;;1.60;;
66118;SDS011;52912;48.564;9.302;2023-03-23T13:11:10;4.90;;;1.63;;
66118;SDS011;52912;48.564;9.302;2023-03-23T13:13:44;3.42;;;1.70;;
66118;SDS011;52912;48.564;9.302;2023-03-23T13:16:16;2.88;;;1.70;;
66118;SDS011;52912;48.564;9.302;2023-03-23T13:18:49;3.22;;;1.85;;
66118;SDS011;52912;48.564;9.302;2023-03-23T13:21:22;2.90;;;1.63;;
66118;SDS011;52912;48.564;9.302;2023-03-23T13:23:53;3.65;;;1.92;;
66118;SDS011;52912;48.564;9.302;2023-03-23T13:26:21;2.78;;;1.67;;
66118;SDS011;52912;48.564;9.302;2023-03-23T13:28:54;2.33;;;1.48;;
66118;SDS011;52912;48.564;9.302;2023-03-23T13:31:22;5.70;;;1.50;;
66118;SDS011;52912;48.564;9.302;2023-03-23T13:33:50;3.25;;;1.40;;
66118;SDS011;52912;48.564;9.302;2023-03-23T13:36:19;3.88;;;1.60;;
66118;SDS011;52912;48.564;9.302;2023-03-23T13:38:51;5.57;;;1.60;;
66118;SDS011;52912;48.564;9.302;2023-03-23T13:41:17;1.70;;;1.40;;
66118;SDS011;52912;48.564;9.302;2023-03-23T13:43:44;6.80;;;1.53;;
66118;SDS011;52912;48.564;9.302;2023-03-23T13:46:24;4.43;;;1.80;;
66118;SDS011;52912;48.564;9.302;2023-03-23T13:49:03;3.97;;;1.60;;
66118;SDS011;52912;48.564;9.302;2023-03-23T13:51:47;3.63;;;1.70;;
66118;SDS011;52912;48.564;9.302;2023-03-23T13:54:24;2.80;;;1.52;;
66118;SDS011;52912;48.564;9.302;2023-03-23T13:56:55;2.28;;;1.60;;
66118;SDS011;52912;48.564;9.302;2023-03-23T13:59:31;3.27;;;1.67;;
66118;SDS011;52912;48.564;9.302;2023-03-23T14:05:11;2.50;;;1.40;;
66118;SDS011;52912;48.564;9.302;2023-03-23T14:07:55;2.55;;;1.60;;
66118;SDS011;52912;48.564;9.302;2023-03-23T14:10:22;2.30;;;1.50;;
66118;SDS011;52912;48.564;9.302;2023-03-23T14:12:52;3.28;;;1.58;;
66118;SDS011;52912;48.564;9.302;2023-03-23T14:15:18;2.60;;;1.70;;
66118;SDS011;52912;48.564;9.302;2023-03-23T14:17:44;4.88;;;1.70;;
66118;SDS011;52912;48.564;9.302;2023-03-23T14:20:23;3.83;;;1.83;;
66118;SDS011;52912;48.564;9.302;2023-03-23T14:22:53;3.78;;;1.45;;
66118;SDS011;52912;48.564;9.302;2023-03-23T14:25:19;2.73;;;1.70;;
66118;SDS011;52912;48.564;9.302;2023-03-23T14:27:45;3.67;;;1.70;;
66118;SDS011;52912;48.564;9.302;2023-03-23T14:30:12;3.00;;;1.77;;
66118;SDS011;52912;48.564;9.302;2023-03-23T14:32:40;4.57;;;1.90;;
66118;SDS011;52912;48.564;9.302;2023-03-23T14:35:07;2.83;;;1.70;;
66118;SDS011;52912;48.564;9.302;2023-03-23T14:37:38;3.25;;;1.80;;
66118;SDS011;52912;48.564;9.302;2023-03-23T14:40:05;6.57;;;1.85;;
66118;SDS011;52912;48.564;9.302;2023-03-23T14:42:36;3.28;;;2.00;;
66118;SDS011;52912;48.564;9.302;2023-03-23T14:45:03;4.95;;;1.90;;
66118;SDS011;52912;48.564;9.302;2023-03-23T14:47:31;8.73;;;2.08;;
66118;SDS011;52912;48.564;9.302;2023-03-23T14:49:59;5.70;;;2.10;;
66118;SDS011;52912;48.564;9.302;2023-03-23T14:52:26;4.18;;;1.95;;
66118;SDS011;52912;48.564;9.302;2023-03-23T14:55:07;2.88;;;1.70;;
66118;SDS011;52912;48.564;9.302;2023-03-23T14:57:39;3.53;;;2.08;;
66118;SDS011;52912;48.564;9.302;2023-03-23T15:02:36;4.60;;;2.00;;
66118;SDS011;52912;48.564;9.302;2023-03-23T15:05:05;3.63;;;1.80;;
66118;SDS011;52912;48.564;9.302;2023-03-23T15:07:36;2.60;;;1.70;;
66118;SDS011;52912;48.564;9.302;2023-03-23T15:10:06;4.90;;;2.25;;
66118;SDS011;52912;48.564;9.302;2023-03-23T15:12:33;7.68;;;2.08;;
66118;SDS011;52912;48.564;9.302;2023-03-23T15:15:00;6.75;;;2.10;;
66118;SDS011;52912;48.564;9.302;2023-03-23T15:17:28;4.85;;;2.10;;